sensor_id;sensor_type;location;lat;lon;timestamp;pressure;altitude;pressure_sealevel;temperature;humidity
7050;BME280;22263;52.260;10.548;2022-07-06T00:00:13;101139.94;;;17.26;100.00
7050;BME280;22263;52.260;10.548;2022-07-06T00:02:42;101137.91;;;17.27;100.00
7050;BME280;22263;52.260;10.548;2022-07-06T00:05:12;101143.13;;;17.25;100.00
7050;BME280;22263;52.260;10.548;2022-07-06T00:07:41;101141.59;;;17.17;100.00
7050;BME280;22263;52.260;10.548;2022-07-06T00:10:11;101148.38;;;17.12;100.00
7050;BME280;22263;52.260;10.548;2022-07-06T00:12:40;101146.78;;;17.15;100.00
7050;BME280;22263;52.260;10.548;2022-07-06T00:15:09;101154.75;;;17.13;100.00
7050;BME280;22263;52.260;10.548;2022-07-06T00:17:41;101153.97;;;17.12;100.00
7050;BME280;22263;52.260;10.548;2022-07-06T00:20:11;101157.13;;;17.18;100.00
7050;BME280;22263;52.260;10.548;2022-07-06T00:22:40;101157.97;;;17.08;100.00
7050;BME280;22263;52.260;10.548;2022-07-06T00:25:10;101155.97;;;17.12;100.00
7050;BME280;22263;52.260;10.548;2022-07-06T00:27:39;101144.38;;;17.17;100.00
7050;BME280;22263;52.260;10.548;2022-07-06T00:30:09;101142.06;;;17.01;100.00
7050;BME280;22263;52.260;10.548;2022-07-06T00:32:41;101140.44;;;17.07;100.00
7050;BME280;22263;52.260;10.548;2022-07-06T00:35:10;101138.47;;;17.00;100.00
7050;BME280;22263;52.260;10.548;2022-07-06T00:37:40;101142.44;;;17.07;100.00
7050;BME280;22263;52.260;10.548;2022-07-06T00:40:10;101134.50;;;16.91;100.00
7050;BME280;22263;52.260;10.548;2022-07-06T00:42:40;101134.50;;;16.91;100.00
7050;BME280;22263;52.260;10.548;2022-07-06T00:45:10;101126.16;;;16.87;100.00
7050;BME280;22263;52.260;10.548;2022-07-06T00:47:43;101120.13;;;16.89;100.00
7050;BME280;22263;52.260;10.548;2022-07-06T00:50:14;101124.53;;;16.90;100.00
7050;BME280;22263;52.260;10.548;2022-07-06T00:52:46;101122.97;;;16.85;100.00
7050;BME280;22263;52.260;10.548;2022-07-06T00:55:17;101131.34;;;16.85;100.00
7050;BME280;22263;52.260;10.548;2022-07-06T00:57:48;101126.53;;;16.89;100.00
7050;BME280;22263;52.260;10.548;2022-07-06T01:00:20;101125.72;;;16.89;100.00
7050;BME280;22263;52.260;10.548;2022-07-06T01:02:53;101125.31;;;16.94;100.00
7050;BME280;22263;52.260;10.548;2022-07-06T01:05:23;101131.69;;;16.94;100.00
7050;BME280;22263;52.260;10.548;2022-07-06T01:07:53;101124.50;;;16.93;100.00
7050;BME280;22263;52.260;10.548;2022-07-06T01:10:23;101125.72;;;16.89;100.00
7050;BME280;22263;52.260;10.548;2022-07-06T01:12:52;101123.34;;;16.91;100.00
7050;BME280;22263;52.260;10.548;2022-07-06T01:15:24;101131.75;;;16.87;100.00
7050;BME280;22263;52.260;10.548;2022-07-06T01:17:56;101130.53;;;16.85;100.00
7050;BME280;22263;52.260;10.548;2022-07-06T01:20:29;101123.38;;;16.80;100.00
7050;BME280;22263;52.260;10.548;2022-07-06T01:22:59;101125.00;;;16.78;100.00
7050;BME280;22263;52.260;10.548;2022-07-06T01:25:29;101118.56;;;16.88;100.00
7050;BME280;22263;52.260;10.548;2022-07-06T01:27:59;101122.13;;;16.88;100.00
7050;BME280;22263;52.260;10.548;2022-07-06T01:30:28;101115.00;;;16.77;100.00
7050;BME280;22263;52.260;10.548;2022-07-06T01:32:58;101117.78;;;16.80;100.00
7050;BME280;22263;52.260;10.548;2022-07-06T01:35:31;101118.22;;;16.72;100.00
7050;BME280;22263;52.260;10.548;2022-07-06T01:38:01;101126.59;;;16.72;100.00
7050;BME280;22263;52.260;10.548;2022-07-06T01:40:30;101121.84;;;16.65;100.00
7050;BME280;22263;52.260;10.548;2022-07-06T01:43:00;101119.44;;;16.67;100.00
7050;BME280;22263;52.260;10.548;2022-07-06T01:45:31;101111.09;;;16.64;100.00
7050;BME280;22263;52.260;10.548;2022-07-06T01:48:05;101119.44;;;16.67;100.00
7050;BME280;22263;52.260;10.548;2022-07-06T01:50:37;101113.00;;;16.81;100.00
7050;BME280;22263;52.260;10.548;2022-07-06T01:53:06;101123.41;;;16.73;100.00
7050;BME280;22263;52.260;10.548;2022-07-06T01:55:36;101121.81;;;16.72;100.00
7050;BME280;22263;52.260;10.548;2022-07-06T01:58:05;101125.44;;;16.66;100.00
7050;BME280;22263;52.260;10.548;2022-07-06T02:00:34;101125.44;;;16.62;100.00
7050;BME280;22263;52.260;10.548;2022-07-06T02:03:04;101126.63;;;16.68;100.00
7050;BME280;22263;52.260;10.548;2022-07-06T02:05:33;101126.16;;;16.80;100.00
7050;BME280;22263;52.260;10.548;2022-07-06T02:08:05;101123.81;;;16.72;100.00
7050;BME280;22263;52.260;10.548;2022-07-06T02:10:35;101125.03;;;16.53;100.00
7050;BME280;22263;52.260;10.548;2022-07-06T02:13:04;101131.03;;;16.51;100.00
7050;BME280;22263;52.260;10.548;2022-07-06T02:15:33;101129.84;;;16.49;100.00
7050;BME280;22263;52.260;10.548;2022-07-06T02:18:03;101132.63;;;16.60;100.00
7050;BME280;22263;52.260;10.548;2022-07-06T02:20:32;101129.06;;;16.38;100.00
7050;BME280;22263;52.260;10.548;2022-07-06T02:23:04;101133.47;;;16.32;100.00
7050;BME280;22263;52.260;10.548;2022-07-06T02:25:34;101132.66;;;16.42;100.00
7050;BME280;22263;52.260;10.548;2022-07-06T02:28:04;101130.28;;;16.33;100.00
7050;BME280;22263;52.260;10.548;2022-07-06T02:30:33;101136.22;;;16.49;100.00
7050;BME280;22263;52.260;10.548;2022-07-06T02:33:03;101127.47;;;16.37;100.00
7050;BME280;22263;52.260;10.548;2022-07-06T02:35:32;101139.44;;;16.41;100.00
7050;BME280;22263;52.260;10.548;2022-07-06T02:38:06;101131.06;;;16.41;100.00
7050;BME280;22263;52.260;10.548;2022-07-06T02:40:36;101127.50;;;16.23;100.00
7050;BME280;22263;52.260;10.548;2022-07-06T02:43:05;101136.66;;;16.27;100.00
7050;BME280;22263;52.260;10.548;2022-07-06T02:45:35;101130.69;;;16.32;100.00
7050;BME280;22263;52.260;10.548;2022-07-06T02:48:05;101130.28;;;16.33;100.00
7050;BME280;22263;52.260;10.548;2022-07-06T02:50:35;101131.47;;;16.36;100.00
7050;BME280;22263;52.260;10.548;2022-07-06T02:53:07;101131.47;;;16.36;100.00
7050;BME280;22263;52.260;10.548;2022-07-06T02:55:36;101129.88;;;16.28;100.00
7050;BME280;22263;52.260;10.548;2022-07-06T02:58:06;101131.91;;;16.20;100.00
7050;BME280;22263;52.260;10.548;2022-07-06T03:00:35;101131.88;;;16.34;100.00
7050;BME280;22263;52.260;10.548;2022-07-06T03:03:05;101130.69;;;16.18;100.00
7050;BME280;22263;52.260;10.548;2022-07-06T03:05:35;101134.69;;;16.24;100.00
7050;BME280;22263;52.260;10.548;2022-07-06T03:08:07;101135.06;;;16.36;100.00
7050;BME280;22263;52.260;10.548;2022-07-06T03:10:37;101132.28;;;16.33;100.00
7050;BME280;22263;52.260;10.548;2022-07-06T03:13:06;101134.63;;;16.41;100.00
7050;BME280;22263;52.260;10.548;2022-07-06T03:15:35;101137.84;;;16.33;100.00
7050;BME280;22263;52.260;10.548;2022-07-06T03:18:05;101141.84;;;16.32;100.00
7050;BME280;22263;52.260;10.548;2022-07-06T03:20:34;101138.28;;;16.17;100.00
7050;BME280;22263;52.260;10.548;2022-07-06T03:23:06;101138.69;;;16.16;100.00
7050;BME280;22263;52.260;10.548;2022-07-06T03:25:36;101143.06;;;16.17;100.00
7050;BME280;22263;52.260;10.548;2022-07-06T03:28:05;101143.47;;;16.11;100.00
7050;BME280;22263;52.260;10.548;2022-07-06T03:30:35;101144.69;;;16.10;100.00
7050;BME280;22263;52.260;10.548;2022-07-06T03:33:04;101146.28;;;16.04;100.00
7050;BME280;22263;52.260;10.548;2022-07-06T03:35:33;101139.47;;;16.20;100.00
7050;BME280;22263;52.260;10.548;2022-07-06T03:38:03;101139.09;;;16.10;100.00
7050;BME280;22263;52.260;10.548;2022-07-06T03:40:35;101141.88;;;16.07;100.00
7050;BME280;22263;52.260;10.548;2022-07-06T03:43:04;101135.13;;;16.01;100.00
7050;BME280;22263;52.260;10.548;2022-07-06T03:45:33;101139.91;;;16.00;100.00
7050;BME280;22263;52.260;10.548;2022-07-06T03:48:04;101137.88;;;16.19;100.00
7050;BME280;22263;52.260;10.548;2022-07-06T03:50:33;101140.66;;;16.11;100.00
7050;BME280;22263;52.260;10.548;2022-07-06T03:53:02;101140.25;;;16.17;100.00
7050;BME280;22263;52.260;10.548;2022-07-06T03:55:34;101139.84;;;16.22;100.00
7050;BME280;22263;52.260;10.548;2022-07-06T03:58:04;101149.44;;;16.13;100.00
7050;BME280;22263;52.260;10.548;2022-07-06T04:00:33;101141.84;;;16.21;100.00
7050;BME280;22263;52.260;10.548;2022-07-06T04:03:03;101146.22;;;16.33;100.00
7050;BME280;22263;52.260;10.548;2022-07-06T04:05:32;101145.81;;;16.38;100.00
7050;BME280;22263;52.260;10.548;2022-07-06T04:08:02;101159.81;;;16.17;100.00
7050;BME280;22263;52.260;10.548;2022-07-06T04:10:31;101161.00;;;16.19;100.00
7050;BME280;22263;52.260;10.548;2022-07-06T04:13:03;101161.03;;;16.16;100.00
7050;BME280;22263;52.260;10.548;2022-07-06T04:15:33;101169.78;;;16.18;100.00
7050;BME280;22263;52.260;10.548;2022-07-06T04:18:02;101168.97;;;16.28;100.00
7050;BME280;22263;52.260;10.548;2022-07-06T04:20:32;101165.38;;;16.24;100.00
7050;BME280;22263;52.260;10.548;2022-07-06T04:23:01;101169.78;;;16.25;100.00
7050;BME280;22263;52.260;10.548;2022-07-06T04:25:31;101172.97;;;16.30;100.00
7050;BME280;22263;52.260;10.548;2022-07-06T04:28:03;101169.78;;;16.25;100.00
7050;BME280;22263;52.260;10.548;2022-07-06T04:30:33;101172.16;;;16.30;100.00
7050;BME280;22263;52.260;10.548;2022-07-06T04:33:02;101174.16;;;16.22;100.00
7050;BME280;22263;52.260;10.548;2022-07-06T04:35:32;101174.94;;;16.26;100.00
7050;BME280;22263;52.260;10.548;2022-07-06T04:38:01;101169.38;;;16.30;100.00
7050;BME280;22263;52.260;10.548;2022-07-06T04:40:31;101170.56;;;16.32;100.00
7050;BME280;22263;52.260;10.548;2022-07-06T04:43:03;101161.75;;;16.41;100.00
7050;BME280;22263;52.260;10.548;2022-07-06T04:45:32;101168.91;;;16.56;100.00
7050;BME280;22263;52.260;10.548;2022-07-06T04:48:02;101159.34;;;16.50;100.00
7050;BME280;22263;52.260;10.548;2022-07-06T04:50:32;101162.16;;;16.43;100.00
7050;BME280;22263;52.260;10.548;2022-07-06T04:53:06;101162.97;;;16.43;100.00
7050;BME280;22263;52.260;10.548;2022-07-06T04:55:35;101167.00;;;16.14;100.00
7050;BME280;22263;52.260;10.548;2022-07-06T04:58:07;101163.00;;;16.26;100.00
7050;BME280;22263;52.260;10.548;2022-07-06T05:00:37;101159.78;;;16.38;100.00
7050;BME280;22263;52.260;10.548;2022-07-06T05:03:06;101170.19;;;16.16;100.00
7050;BME280;22263;52.260;10.548;2022-07-06T05:05:36;101169.78;;;16.18;100.00
7050;BME280;22263;52.260;10.548;2022-07-06T05:08:05;101172.16;;;16.23;100.00
7050;BME280;22263;52.260;10.548;2022-07-06T05:10:34;101170.56;;;16.29;100.00
7050;BME280;22263;52.260;10.548;2022-07-06T05:13:06;101169.38;;;16.33;100.00
7050;BME280;22263;52.260;10.548;2022-07-06T05:15:36;101180.53;;;16.44;100.00
7050;BME280;22263;52.260;10.548;2022-07-06T05:18:05;101174.09;;;16.50;100.00
7050;BME280;22263;52.260;10.548;2022-07-06T05:20:35;101172.53;;;16.60;100.00
7050;BME280;22263;52.260;10.548;2022-07-06T05:23:04;101175.31;;;16.67;100.00
7050;BME280;22263;52.260;10.548;2022-07-06T05:25:34;101168.50;;;16.75;100.00
7050;BME280;22263;52.260;10.548;2022-07-06T05:28:03;101171.66;;;16.81;100.00
7050;BME280;22263;52.260;10.548;2022-07-06T05:30:35;101176.03;;;16.89;100.00
7050;BME280;22263;52.260;10.548;2022-07-06T05:33:05;101168.13;;;16.73;100.00
7050;BME280;22263;52.260;10.548;2022-07-06T05:35:34;101167.34;;;16.62;100.00
7050;BME280;22263;52.260;10.548;2022-07-06T05:38:17;101174.00;;;16.93;100.00
7050;BME280;22263;52.260;10.548;2022-07-06T05:40:47;101170.81;;;16.94;100.00
7050;BME280;22263;52.260;10.548;2022-07-06T05:43:17;101174.06;;;16.82;100.00
7050;BME280;22263;52.260;10.548;2022-07-06T05:45:49;101177.25;;;16.81;100.00
7050;BME280;22263;52.260;10.548;2022-07-06T05:48:18;101175.69;;;16.73;100.00
7050;BME280;22263;52.260;10.548;2022-07-06T05:51:01;101186.03;;;16.79;100.00
7050;BME280;22263;52.260;10.548;2022-07-06T05:53:30;101186.00;;;16.90;100.00
7050;BME280;22263;52.260;10.548;2022-07-06T05:56:00;101188.72;;;17.08;100.00
7050;BME280;22263;52.260;10.548;2022-07-06T05:58:29;101185.44;;;17.27;100.00
7050;BME280;22263;52.260;10.548;2022-07-06T06:01:01;101187.09;;;17.21;100.00
7050;BME280;22263;52.260;10.548;2022-07-06T06:03:30;101180.91;;;17.54;100.00
7050;BME280;22263;52.260;10.548;2022-07-06T06:06:00;101184.66;;;17.26;100.00
7050;BME280;22263;52.260;10.548;2022-07-06T06:08:29;101180.59;;;17.38;100.00
7050;BME280;22263;52.260;10.548;2022-07-06T06:10:59;101185.41;;;17.34;100.00
7050;BME280;22263;52.260;10.548;2022-07-06T06:13:36;101177.00;;;17.37;100.00
7050;BME280;22263;52.260;10.548;2022-07-06T06:16:08;101179.69;;;17.62;100.00
7050;BME280;22263;52.260;10.548;2022-07-06T06:18:37;101185.50;;;17.85;100.00
7050;BME280;22263;52.260;10.548;2022-07-06T06:21:09;101182.03;;;17.67;100.00
7050;BME280;22263;52.260;10.548;2022-07-06T06:23:38;101194.63;;;17.97;100.00
7050;BME280;22263;52.260;10.548;2022-07-06T06:26:08;101188.06;;;18.14;100.00
7050;BME280;22263;52.260;10.548;2022-07-06T06:28:37;101182.69;;;17.85;100.00
7050;BME280;22263;52.260;10.548;2022-07-06T06:31:10;101182.66;;;17.93;100.00
7050;BME280;22263;52.260;10.548;2022-07-06T06:33:40;101182.72;;;17.82;100.00
7050;BME280;22263;52.260;10.548;2022-07-06T06:36:09;101186.91;;;18.11;100.00
7050;BME280;22263;52.260;10.548;2022-07-06T06:38:39;101173.56;;;18.26;100.00
7050;BME280;22263;52.260;10.548;2022-07-06T06:41:08;101185.38;;;18.44;100.00
7050;BME280;22263;52.260;10.548;2022-07-06T06:43:37;101187.31;;;18.10;100.00
7050;BME280;22263;52.260;10.548;2022-07-06T06:46:10;101184.47;;;18.13;100.00
7050;BME280;22263;52.260;10.548;2022-07-06T06:48:39;101187.31;;;18.10;100.00
7050;BME280;22263;52.260;10.548;2022-07-06T06:51:08;101186.69;;;18.33;100.00
7050;BME280;22263;52.260;10.548;2022-07-06T06:53:38;101183.72;;;18.54;100.00
7050;BME280;22263;52.260;10.548;2022-07-06T06:56:08;101185.72;;;18.53;100.00
7050;BME280;22263;52.260;10.548;2022-07-06T06:58:37;101185.44;;;18.41;100.00
7050;BME280;22263;52.260;10.548;2022-07-06T07:01:30;101183.97;;;18.25;100.00
7050;BME280;22263;52.260;10.548;2022-07-06T07:03:59;101192.38;;;17.77;100.00
7050;BME280;22263;52.260;10.548;2022-07-06T07:06:29;101186.47;;;18.16;100.00
7050;BME280;22263;52.260;10.548;2022-07-06T07:08:58;101197.44;;;18.41;100.00
7050;BME280;22263;52.260;10.548;2022-07-06T07:11:28;101201.69;;;18.60;100.00
7050;BME280;22263;52.260;10.548;2022-07-06T07:13:57;101205.34;;;18.50;100.00
7050;BME280;22263;52.260;10.548;2022-07-06T07:16:29;101192.97;;;18.88;100.00
7050;BME280;22263;52.260;10.548;2022-07-06T07:18:59;101202.19;;;18.85;100.00
7050;BME280;22263;52.260;10.548;2022-07-06T07:21:29;101194.97;;;18.88;100.00
7050;BME280;22263;52.260;10.548;2022-07-06T07:23:58;101208.25;;;18.80;100.00
7050;BME280;22263;52.260;10.548;2022-07-06T07:26:35;101201.13;;;18.72;100.00
7050;BME280;22263;52.260;10.548;2022-07-06T07:29:05;101209.69;;;18.58;100.00
7050;BME280;22263;52.260;10.548;2022-07-06T07:31:37;101219.34;;;18.50;100.00
7050;BME280;22263;52.260;10.548;2022-07-06T07:34:06;101219.44;;;18.84;100.00
7050;BME280;22263;52.260;10.548;2022-07-06T07:36:35;101216.25;;;18.82;100.00
7050;BME280;22263;52.260;10.548;2022-07-06T07:39:05;101216.44;;;18.64;100.00
7050;BME280;22263;52.260;10.548;2022-07-06T07:41:34;101217.94;;;18.31;100.00
7050;BME280;22263;52.260;10.548;2022-07-06T07:44:04;101213.25;;;18.17;100.00
7050;BME280;22263;52.260;10.548;2022-07-06T07:46:33;101219.63;;;18.21;100.00
7050;BME280;22263;52.260;10.548;2022-07-06T07:49:05;101223.25;;;18.15;100.00
7050;BME280;22263;52.260;10.548;2022-07-06T07:51:35;101222.09;;;18.57;100.00
7050;BME280;22263;52.260;10.548;2022-07-06T07:54:05;101225.00;;;18.43;100.00
7050;BME280;22263;52.260;10.548;2022-07-06T07:56:34;101219.72;;;18.07;100.00
7050;BME280;22263;52.260;10.548;2022-07-06T07:59:06;101220.94;;;18.06;100.00
7050;BME280;22263;52.260;10.548;2022-07-06T08:01:36;101230.97;;;18.48;100.00
7050;BME280;22263;52.260;10.548;2022-07-06T08:04:09;101234.06;;;18.64;100.00
7050;BME280;22263;52.260;10.548;2022-07-06T08:06:38;101230.66;;;18.84;99.41
7050;BME280;22263;52.260;10.548;2022-07-06T08:09:08;101229.19;;;19.06;96.53
7050;BME280;22263;52.260;10.548;2022-07-06T08:11:37;101228.66;;;18.84;97.45
7050;BME280;22263;52.260;10.548;2022-07-06T08:14:06;101233.44;;;18.84;99.46
7050;BME280;22263;52.260;10.548;2022-07-06T08:16:36;101232.25;;;18.85;97.53
7050;BME280;22263;52.260;10.548;2022-07-06T08:19:05;101221.53;;;19.10;94.40
7050;BME280;22263;52.260;10.548;2022-07-06T08:21:39;101220.84;;;19.33;93.87
7050;BME280;22263;52.260;10.548;2022-07-06T08:24:09;101228.13;;;19.61;92.11
7050;BME280;22263;52.260;10.548;2022-07-06T08:26:38;101234.00;;;19.05;92.21
7050;BME280;22263;52.260;10.548;2022-07-06T08:29:08;101223.28;;;18.97;92.19
7050;BME280;22263;52.260;10.548;2022-07-06T08:31:37;101225.03;;;18.84;93.20
7050;BME280;22263;52.260;10.548;2022-07-06T08:34:27;101220.59;;;19.20;87.83
7050;BME280;22263;52.260;10.548;2022-07-06T08:37:02;101222.38;;;19.07;90.93
7050;BME280;22263;52.260;10.548;2022-07-06T08:39:32;101218.06;;;18.99;91.65
7050;BME280;22263;52.260;10.548;2022-07-06T08:42:02;101232.53;;;18.94;94.39
7050;BME280;22263;52.260;10.548;2022-07-06T08:44:32;101225.97;;;19.07;94.52
7050;BME280;22263;52.260;10.548;2022-07-06T08:47:05;101230.16;;;18.92;96.51
7050;BME280;22263;52.260;10.548;2022-07-06T08:49:35;101223.13;;;19.11;96.89
7050;BME280;22263;52.260;10.548;2022-07-06T08:52:09;101227.63;;;19.01;96.59
7050;BME280;22263;52.260;10.548;2022-07-06T08:54:39;101230.59;;;18.87;96.35
7050;BME280;22263;52.260;10.548;2022-07-06T08:57:09;101229.34;;;18.92;96.08
7050;BME280;22263;52.260;10.548;2022-07-06T08:59:39;101223.00;;;18.88;96.48
7050;BME280;22263;52.260;10.548;2022-07-06T09:02:09;101237.41;;;18.86;96.97
7050;BME280;22263;52.260;10.548;2022-07-06T09:04:42;101230.22;;;18.85;96.97
7050;BME280;22263;52.260;10.548;2022-07-06T09:07:15;101234.00;;;19.05;96.73
7050;BME280;22263;52.260;10.548;2022-07-06T09:10:07;101235.47;;;19.17;94.44
7050;BME280;22263;52.260;10.548;2022-07-06T09:12:37;101241.44;;;18.85;95.11
7050;BME280;22263;52.260;10.548;2022-07-06T09:15:07;101240.22;;;18.86;95.83
7050;BME280;22263;52.260;10.548;2022-07-06T09:17:38;101229.91;;;18.80;95.21
7050;BME280;22263;52.260;10.548;2022-07-06T09:20:08;101237.25;;;19.34;92.11
7050;BME280;22263;52.260;10.548;2022-07-06T09:22:41;101230.66;;;19.51;89.14
7050;BME280;22263;52.260;10.548;2022-07-06T09:25:13;101241.19;;;19.97;83.57
7050;BME280;22263;52.260;10.548;2022-07-06T09:27:44;101229.09;;;20.27;79.78
7050;BME280;22263;52.260;10.548;2022-07-06T09:30:16;101228.13;;;20.61;72.16
7050;BME280;22263;52.260;10.548;2022-07-06T09:32:47;101234.34;;;20.72;69.00
7050;BME280;22263;52.260;10.548;2022-07-06T09:35:22;101237.09;;;21.54;62.52
7050;BME280;22263;52.260;10.548;2022-07-06T09:38:05;101228.81;;;21.83;61.16
7050;BME280;22263;52.260;10.548;2022-07-06T09:40:37;101216.09;;;21.59;61.10
7050;BME280;22263;52.260;10.548;2022-07-06T09:43:11;101221.38;;;21.73;59.96
7050;BME280;22263;52.260;10.548;2022-07-06T09:45:42;101226.56;;;21.58;59.99
7050;BME280;22263;52.260;10.548;2022-07-06T09:48:14;101217.13;;;20.70;64.00
7050;BME280;22263;52.260;10.548;2022-07-06T09:50:46;101214.16;;;20.97;62.34
7050;BME280;22263;52.260;10.548;2022-07-06T09:53:21;101225.91;;;20.25;64.94
7050;BME280;22263;52.260;10.548;2022-07-06T09:55:53;101229.75;;;20.12;65.58
7050;BME280;22263;52.260;10.548;2022-07-06T09:58:24;101238.47;;;20.17;64.49
7050;BME280;22263;52.260;10.548;2022-07-06T10:01:25;101234.34;;;20.49;60.23
7050;BME280;22263;52.260;10.548;2022-07-06T10:03:56;101239.75;;;20.13;57.56
7050;BME280;22263;52.260;10.548;2022-07-06T10:06:25;101228.22;;;20.07;58.08
7050;BME280;22263;52.260;10.548;2022-07-06T10:08:58;101235.47;;;20.31;58.71
7050;BME280;22263;52.260;10.548;2022-07-06T10:11:28;101231.53;;;20.92;57.64
7050;BME280;22263;52.260;10.548;2022-07-06T10:14:00;101225.69;;;21.61;53.90
7050;BME280;22263;52.260;10.548;2022-07-06T10:16:30;101233.63;;;21.66;54.43
7050;BME280;22263;52.260;10.548;2022-07-06T10:19:02;101217.59;;;21.27;55.46
7050;BME280;22263;52.260;10.548;2022-07-06T10:21:35;101213.56;;;21.28;54.38
7050;BME280;22263;52.260;10.548;2022-07-06T10:24:09;101217.34;;;20.79;57.43
7050;BME280;22263;52.260;10.548;2022-07-06T10:26:39;101225.06;;;20.75;58.34
7050;BME280;22263;52.260;10.548;2022-07-06T10:29:09;101227.59;;;20.46;62.57
7050;BME280;22263;52.260;10.548;2022-07-06T10:31:40;101226.69;;;20.72;62.02
7050;BME280;22263;52.260;10.548;2022-07-06T10:34:13;101215.66;;;20.81;60.54
7050;BME280;22263;52.260;10.548;2022-07-06T10:36:48;101204.81;;;21.59;56.95
7050;BME280;22263;52.260;10.548;2022-07-06T10:39:35;101210.19;;;21.53;54.85
7050;BME280;22263;52.260;10.548;2022-07-06T10:42:39;101224.34;;;21.30;55.93
7050;BME280;22263;52.260;10.548;2022-07-06T10:45:10;101216.88;;;21.23;57.48
7050;BME280;22263;52.260;10.548;2022-07-06T10:47:41;101213.66;;;21.41;57.30
7050;BME280;22263;52.260;10.548;2022-07-06T10:50:11;101218.50;;;21.93;55.73
7050;BME280;22263;52.260;10.548;2022-07-06T10:52:51;101209.22;;;21.60;55.12
7050;BME280;22263;52.260;10.548;2022-07-06T10:55:31;101209.72;;;21.91;54.31
7050;BME280;22263;52.260;10.548;2022-07-06T10:58:02;101201.63;;;21.77;53.26
7050;BME280;22263;52.260;10.548;2022-07-06T11:00:55;101201.81;;;21.50;54.75
7050;BME280;22263;52.260;10.548;2022-07-06T11:03:39;101206.13;;;21.18;57.50
7050;BME280;22263;52.260;10.548;2022-07-06T11:06:14;101202.22;;;21.32;55.79
7050;BME280;22263;52.260;10.548;2022-07-06T11:08:46;101205.53;;;21.07;53.85
7050;BME280;22263;52.260;10.548;2022-07-06T11:11:20;101203.22;;;21.42;53.89
7050;BME280;22263;52.260;10.548;2022-07-06T11:13:59;101207.41;;;21.34;51.18
7050;BME280;22263;52.260;10.548;2022-07-06T11:16:31;101209.69;;;20.79;52.10
7050;BME280;22263;52.260;10.548;2022-07-06T11:19:08;101211.94;;;20.88;51.95
7050;BME280;22263;52.260;10.548;2022-07-06T11:21:40;101202.19;;;21.12;51.61
7050;BME280;22263;52.260;10.548;2022-07-06T11:24:11;101215.25;;;21.03;51.53
7050;BME280;22263;52.260;10.548;2022-07-06T11:26:44;101205.72;;;20.97;53.26
7050;BME280;22263;52.260;10.548;2022-07-06T11:29:15;101202.75;;;20.64;54.09
7050;BME280;22263;52.260;10.548;2022-07-06T11:31:48;101203.91;;;19.97;57.61
7050;BME280;22263;52.260;10.548;2022-07-06T11:34:23;101213.03;;;20.05;58.34
7050;BME280;22263;52.260;10.548;2022-07-06T11:36:56;101198.78;;;20.15;56.92
7050;BME280;22263;52.260;10.548;2022-07-06T11:39:26;101202.09;;;19.83;59.50
7050;BME280;22263;52.260;10.548;2022-07-06T11:42:00;101211.88;;;19.75;61.05
7050;BME280;22263;52.260;10.548;2022-07-06T11:44:30;101202.69;;;19.98;60.40
7050;BME280;22263;52.260;10.548;2022-07-06T11:47:00;101207.97;;;19.92;61.11
7050;BME280;22263;52.260;10.548;2022-07-06T11:49:31;101205.91;;;19.96;61.89
7050;BME280;22263;52.260;10.548;2022-07-06T11:52:05;101209.63;;;19.90;62.84
7050;BME280;22263;52.260;10.548;2022-07-06T11:54:35;101218.75;;;19.71;64.50
7050;BME280;22263;52.260;10.548;2022-07-06T11:57:08;101220.78;;;19.67;64.55
7050;BME280;22263;52.260;10.548;2022-07-06T11:59:40;101224.47;;;19.64;64.13
7050;BME280;22263;52.260;10.548;2022-07-06T12:02:15;101214.69;;;19.72;63.45
7050;BME280;22263;52.260;10.548;2022-07-06T12:04:45;101213.88;;;19.75;61.46
7050;BME280;22263;52.260;10.548;2022-07-06T12:07:17;101207.59;;;19.90;59.96
7050;BME280;22263;52.260;10.548;2022-07-06T12:09:47;101206.69;;;19.97;60.45
7050;BME280;22263;52.260;10.548;2022-07-06T12:12:19;101199.03;;;20.24;60.26
7050;BME280;22263;52.260;10.548;2022-07-06T12:14:52;101204.97;;;20.53;58.56
7050;BME280;22263;52.260;10.548;2022-07-06T12:17:21;101193.69;;;20.76;58.55
7050;BME280;22263;52.260;10.548;2022-07-06T12:19:53;101187.75;;;21.14;58.32
7050;BME280;22263;52.260;10.548;2022-07-06T12:22:25;101182.88;;;21.34;56.00
7050;BME280;22263;52.260;10.548;2022-07-06T12:24:54;101195.19;;;21.01;55.55
7050;BME280;22263;52.260;10.548;2022-07-06T12:27:33;101192.69;;;20.67;57.00
7050;BME280;22263;52.260;10.548;2022-07-06T12:30:10;101179.13;;;20.38;58.28
7050;BME280;22263;52.260;10.548;2022-07-06T12:33:10;101180.28;;;20.18;60.18
7050;BME280;22263;52.260;10.548;2022-07-06T12:35:39;101185.13;;;20.40;60.58
7050;BME280;22263;52.260;10.548;2022-07-06T12:38:09;101185.84;;;20.21;62.54
7050;BME280;22263;52.260;10.548;2022-07-06T12:40:39;101184.81;;;20.12;64.69
7050;BME280;22263;52.260;10.548;2022-07-06T12:43:11;101186.72;;;20.18;63.75
7050;BME280;22263;52.260;10.548;2022-07-06T12:45:40;101191.44;;;19.98;65.38
7050;BME280;22263;52.260;10.548;2022-07-06T12:48:12;101198.50;;;19.83;65.29
7050;BME280;22263;52.260;10.548;2022-07-06T12:50:41;101192.88;;;19.83;63.75
7050;BME280;22263;52.260;10.548;2022-07-06T12:53:24;101183.66;;;20.09;62.43
7050;BME280;22263;52.260;10.548;2022-07-06T12:56:08;101185.03;;;19.97;62.28
7050;BME280;22263;52.260;10.548;2022-07-06T12:58:40;101189.53;;;20.41;60.32
7050;BME280;22263;52.260;10.548;2022-07-06T13:01:22;101178.97;;;20.69;58.47
7050;BME280;22263;52.260;10.548;2022-07-06T13:03:55;101171.72;;;20.25;60.21